createdAt,value
2022-08-05T00:00:19.615Z,101588.91
2022-08-05T00:02:51.662Z,101597.19
2022-08-05T00:06:03.006Z,101594.41
2022-08-05T00:08:32.710Z,101592.88
2022-08-05T00:10:56.292Z,101596.03
2022-08-05T00:13:38.101Z,101596.00
2022-08-05T00:16:12.590Z,101593.25
2022-08-05T00:18:42.344Z,101590.91
2022-08-05T00:21:09.399Z,101589.28
2022-08-05T00:23:46.142Z,101592.47
2022-08-05T00:26:20.642Z,101576.31
2022-08-05T00:28:47.136Z,101580.25
2022-08-05T00:31:15.889Z,101584.97
2022-08-05T00:34:55.494Z,101586.94
2022-08-05T00:37:11.542Z,101585.78
2022-08-05T00:39:15.559Z,101590.91
2022-08-05T00:41:55.252Z,101595.63
2022-08-05T00:44:30.720Z,101595.63
2022-08-05T00:47:03.771Z,101585.00
2022-08-05T00:49:44.746Z,101585.00
2022-08-05T00:52:18.394Z,101586.56
2022-08-05T00:54:55.011Z,101581.47
2022-08-05T00:57:25.157Z,101592.88
2022-08-05T00:59:58.166Z,101587.34
2022-08-05T01:02:24.762Z,101581.03
2022-08-05T01:04:51.305Z,101566.50
2022-08-05T01:07:18.103Z,101579.50
2022-08-05T01:09:44.943Z,101591.25
2022-08-05T01:12:18.749Z,101589.69
2022-08-05T01:14:55.795Z,101590.06
2022-08-05T01:17:31.253Z,101595.22
2022-08-05T01:20:13.721Z,101589.69
2022-08-05T01:22:51.382Z,101592.44
2022-08-05T01:25:53.242Z,101605.81
2022-08-05T01:28:27.992Z,101607.81
2022-08-05T01:31:34.299Z,101612.13
2022-08-05T01:34:26.724Z,101599.94
2022-08-05T01:37:00.707Z,101605.44
2022-08-05T01:39:34.605Z,101620.41
2022-08-05T01:42:16.419Z,101621.59
2022-08-05T01:44:45.794Z,101614.09
2022-08-05T01:47:22.119Z,101623.94
2022-08-05T01:50:01.390Z,101631.03
2022-08-05T01:52:32.584Z,101637.72
2022-08-05T01:55:06.760Z,101630.25
2022-08-05T01:58:29.496Z,101622.75
2022-08-05T02:00:30.730Z,101626.31
2022-08-05T02:03:06.623Z,101610.19
2022-08-05T02:05:44.838Z,101612.13
2022-08-05T02:08:15.025Z,101605.44
2022-08-05T02:11:02.555Z,101616.44
2022-08-05T02:13:53.254Z,101615.25
2022-08-05T02:16:29.081Z,101608.16
2022-08-05T02:19:14.072Z,101617.19
2022-08-05T02:21:46.787Z,101633.72
2022-08-05T02:24:23.405Z,101641.59
2022-08-05T02:26:54.904Z,101601.88
2022-08-05T02:29:26.158Z,101598.75
2022-08-05T02:32:12.994Z,101612.50
2022-08-05T02:34:54.711Z,101614.44
2022-08-05T02:37:23.213Z,101602.66
2022-08-05T02:39:51.516Z,101606.97
2022-08-05T02:42:25.729Z,101605.78
2022-08-05T02:44:53.206Z,101605.00
2022-08-05T02:47:21.638Z,101588.88
2022-08-05T02:49:49.050Z,101588.88
2022-08-05T02:52:30.167Z,101601.06
2022-08-05T02:54:58.702Z,101593.19
2022-08-05T02:58:11.605Z,101595.94
2022-08-05T03:00:17.265Z,101604.97
2022-08-05T03:02:47.651Z,101603.00
2022-08-05T03:05:15.562Z,101601.41
2022-08-05T03:08:01.263Z,101610.03
2022-08-05T03:10:29.885Z,101613.56
2022-08-05T03:15:23.422Z,101611.22
2022-08-05T03:17:54.015Z,101611.59
2022-08-05T03:20:22.236Z,101604.91
2022-08-05T03:22:50.610Z,101600.22
2022-08-05T03:25:33.788Z,101604.91
2022-08-05T03:28:10.623Z,101598.97
2022-08-05T03:30:41.054Z,101608.03
2022-08-05T03:33:09.221Z,101601.34
2022-08-05T03:35:40.454Z,101605.63
2022-08-05T03:38:08.003Z,101602.47
2022-08-05T03:40:34.527Z,101597.38
2022-08-05T03:43:59.017Z,101604.09
2022-08-05T03:45:57.931Z,101611.97
2022-08-05T03:48:29.926Z,101609.22
2022-08-05T03:52:37.773Z,101618.63
2022-08-05T03:55:53.611Z,101625.34
2022-08-05T03:57:16.751Z,101617.06
2022-08-05T04:00:03.365Z,101618.97
2022-08-05T04:02:38.813Z,101616.63
2022-08-05T04:05:13.066Z,101624.09
2022-08-05T04:07:51.438Z,101610.34
2022-08-05T04:10:30.951Z,101598.94
2022-08-05T04:13:03.386Z,101604.44
2022-08-05T04:15:33.313Z,101607.94
2022-08-05T04:18:09.847Z,101609.06
2022-08-05T04:20:38.600Z,101619.72
2022-08-05T04:23:12.594Z,101617.72
2022-08-05T04:25:57.140Z,101620.44
2022-08-05T04:28:30.556Z,101629.91
2022-08-05T04:31:01.064Z,101618.03
2022-08-05T04:34:17.991Z,101625.88
2022-08-05T04:36:44.786Z,101625.13
2022-08-05T04:39:01.997Z,101629.81
2022-08-05T04:41:36.641Z,101624.31
2022-08-05T04:44:09.375Z,101629.03
2022-08-05T04:46:37.610Z,101627.06
2022-08-05T04:49:05.613Z,101618.00
2022-08-05T04:51:38.928Z,101617.97
2022-08-05T04:54:05.619Z,101629.34
2022-08-05T04:56:37.250Z,101630.47
2022-08-05T04:59:21.944Z,101625.38
2022-08-05T05:02:07.399Z,101625.00
2022-08-05T05:04:44.136Z,101626.16
2022-08-05T05:07:15.946Z,101626.50
2022-08-05T05:09:44.080Z,101632.78
2022-08-05T05:12:11.590Z,101634.00
2022-08-05T05:14:49.396Z,101635.91
2022-08-05T05:17:23.441Z,101643.38
2022-08-05T05:19:53.939Z,101639.44
2022-08-05T05:22:22.840Z,101648.88
2022-08-05T05:24:58.399Z,101638.97
2022-08-05T05:27:44.656Z,101643.94
2022-08-05T05:30:29.136Z,101634.53
2022-08-05T05:32:57.018Z,101639.72
2022-08-05T05:35:27.782Z,101633.09
2022-08-05T05:37:59.744Z,101629.56
2022-08-05T05:40:29.557Z,101644.50
2022-08-05T05:42:57.451Z,101638.59
2022-08-05T05:45:24.694Z,101645.75
2022-08-05T05:48:06.761Z,101641.47
2022-08-05T05:50:41.041Z,101642.66
2022-08-05T05:53:22.223Z,101656.84
2022-08-05T05:55:52.387Z,101659.66
2022-08-05T05:58:30.374Z,101659.69
2022-08-05T06:01:12.682Z,101658.03
2022-08-05T06:04:00.416Z,101663.59
2022-08-05T06:06:31.301Z,101666.06
2022-08-05T06:09:00.411Z,101667.25
2022-08-05T06:11:28.947Z,101667.63
2022-08-05T06:13:56.112Z,101668.56
2022-08-05T06:16:31.806Z,101666.25
2022-08-05T06:19:05.848Z,101674.56
2022-08-05T06:21:36.769Z,101673.03
2022-08-05T06:24:04.529Z,101670.69
2022-08-05T06:26:33.964Z,101674.63
2022-08-05T06:29:06.057Z,101671.47
2022-08-05T06:31:48.826Z,101677.81
2022-08-05T06:34:17.449Z,101675.47
2022-08-05T06:36:56.802Z,101677.09
2022-08-05T06:39:24.538Z,101682.59
2022-08-05T06:41:53.530Z,101686.50
2022-08-05T06:44:22.003Z,101681.75
2022-08-05T06:46:50.942Z,101689.63
2022-08-05T06:49:18.903Z,101690.81
2022-08-05T06:51:48.358Z,101690.41
2022-08-05T06:54:19.025Z,101689.66
2022-08-05T06:56:55.171Z,101690.06
2022-08-05T06:59:38.540Z,101675.91
2022-08-05T07:02:05.675Z,101687.72
2022-08-05T07:04:32.137Z,101685.00
2022-08-05T07:06:59.727Z,101693.28
2022-08-05T07:09:26.246Z,101697.22
2022-08-05T07:12:00.518Z,101705.91
2022-08-05T07:14:46.118Z,101709.44
2022-08-05T07:17:59.948Z,101706.69
2022-08-05T07:22:47.739Z,101716.94
2022-08-05T07:25:54.287Z,101722.84
2022-08-05T07:28:05.792Z,101739.38
2022-08-05T07:30:38.884Z,101737.81
2022-08-05T07:33:15.647Z,101737.78
2022-08-05T07:36:05.059Z,101735.03
2022-08-05T07:38:34.237Z,101752.38
2022-08-05T07:41:34.981Z,101762.22
2022-08-05T07:43:56.073Z,101746.84
2022-08-05T07:46:25.055Z,101750.81
2022-08-05T07:49:02.006Z,101756.31
2022-08-05T07:51:37.174Z,101756.34
2022-08-05T07:54:10.171Z,101755.97
2022-08-05T07:57:01.988Z,101765.00
2022-08-05T07:59:38.871Z,101761.84
2022-08-05T08:02:16.996Z,101758.72
2022-08-05T08:04:48.771Z,101758.31
2022-08-05T08:07:17.900Z,101771.75
2022-08-05T08:09:45.800Z,101771.72
2022-08-05T08:12:37.053Z,101766.19
2022-08-05T08:15:03.720Z,101773.22
2022-08-05T08:17:32.429Z,101772.03
2022-08-05T08:20:42.833Z,101771.16
2022-08-05T08:22:53.538Z,101774.31
2022-08-05T08:25:26.822Z,101780.59
2022-08-05T08:28:18.438Z,101780.16
2022-08-05T08:30:56.072Z,101776.97
2022-08-05T08:33:23.839Z,101783.22
2022-08-05T08:35:55.986Z,101778.50
2022-08-05T08:38:35.969Z,101785.97
2022-08-05T08:41:09.978Z,101790.41
2022-08-05T08:45:18.935Z,101794.78
2022-08-05T08:46:28.024Z,101795.00
2022-08-05T08:49:06.415Z,101796.59
2022-08-05T08:52:03.412Z,101811.38
2022-08-05T08:54:33.178Z,101803.09
2022-08-05T08:57:00.586Z,101800.25
2022-08-05T08:59:33.583Z,101796.41
2022-08-05T09:02:04.387Z,101807.91
2022-08-05T09:04:58.188Z,101805.22
2022-08-05T09:07:28.410Z,101818.34
2022-08-05T09:09:56.310Z,101815.41
2022-08-05T09:12:27.407Z,101820.78
2022-08-05T09:14:59.638Z,101829.38
2022-08-05T09:17:42.238Z,101833.19
2022-08-05T09:20:13.461Z,101822.47
2022-08-05T09:23:07.755Z,101828.38
2022-08-05T09:26:02.193Z,101834.66
2022-08-05T09:28:31.842Z,101834.50
2022-08-05T09:31:43.534Z,101832.75
2022-08-05T09:34:01.232Z,101834.75
2022-08-05T09:36:54.655Z,101834.19
2022-08-05T09:39:27.644Z,101851.06
2022-08-05T09:42:08.591Z,101857.22
2022-08-05T09:44:46.012Z,101855.06
2022-08-05T09:47:17.996Z,101854.13
2022-08-05T09:50:01.566Z,101863.41
2022-08-05T09:52:34.629Z,101869.22
2022-08-05T09:55:56.370Z,101868.88
2022-08-05T09:57:58.741Z,101863.41
2022-08-05T10:00:27.817Z,101871.31
2022-08-05T10:02:58.371Z,101875.19
2022-08-05T10:05:29.342Z,101870.41
2022-08-05T10:08:36.481Z,101882.16
2022-08-05T10:10:54.162Z,101883.34
2022-08-05T10:13:47.313Z,101887.28
2022-08-05T10:16:41.561Z,101879.06
2022-08-05T10:19:11.855Z,101877.03
2022-08-05T10:21:40.303Z,101877.75
2022-08-05T10:24:10.875Z,101882.75
2022-08-05T10:26:51.406Z,101881.34
2022-08-05T10:29:24.045Z,101879.38
2022-08-05T10:33:01.059Z,101881.13
2022-08-05T10:35:00.787Z,101887.44
2022-08-05T10:37:37.544Z,101893.16
2022-08-05T10:40:35.533Z,101900.38
2022-08-05T10:43:17.590Z,101909.06
2022-08-05T10:46:06.257Z,101894.00
2022-08-05T10:48:57.055Z,101909.41
2022-08-05T10:51:28.748Z,101911.34
2022-08-05T10:53:58.347Z,101914.03
2022-08-05T10:56:29.820Z,101918.19
2022-08-05T10:58:56.242Z,101926.59
2022-08-05T11:01:55.081Z,101917.41
2022-08-05T11:04:26.372Z,101928.22
2022-08-05T11:07:04.545Z,101935.69
2022-08-05T11:09:47.850Z,101929.47
2022-08-05T11:12:26.511Z,101935.41
2022-08-05T11:16:00.552Z,101940.94
2022-08-05T11:18:29.981Z,101940.91
2022-08-05T11:20:59.858Z,101943.94
2022-08-05T11:24:04.559Z,101943.88
2022-08-05T11:26:38.014Z,101951.47
2022-08-05T11:29:14.040Z,101950.25
2022-08-05T11:31:56.417Z,101962.91
2022-08-05T11:34:50.900Z,101969.78
2022-08-05T11:38:30.351Z,101971.00
2022-08-05T11:41:00.617Z,101970.63
2022-08-05T11:44:01.013Z,101977.31
2022-08-05T11:46:32.561Z,101985.59
2022-08-05T11:49:00.924Z,101981.28
2022-08-05T11:51:43.616Z,101987.66
2022-08-05T11:54:24.440Z,101998.72
2022-08-05T11:57:02.181Z,101984.94
2022-08-05T11:59:35.969Z,101998.00
2022-08-05T12:02:23.744Z,102003.97
2022-08-05T12:04:59.204Z,102002.00
2022-08-05T12:08:08.931Z,102010.69
2022-08-05T12:10:19.873Z,102012.63
2022-08-05T12:12:59.941Z,102012.19
2022-08-05T12:15:38.407Z,102011.97
2022-08-05T12:18:10.986Z,102014.00
2022-08-05T12:20:38.815Z,102022.81
2022-08-05T12:23:10.488Z,102015.00
2022-08-05T12:26:09.175Z,102014.53
2022-08-05T12:28:38.199Z,102014.53
2022-08-05T12:31:05.567Z,102025.91
2022-08-05T12:33:36.360Z,102030.50
2022-08-05T12:36:07.864Z,102027.88
2022-08-05T12:38:38.264Z,102032.66
2022-08-05T12:41:14.041Z,102023.81
2022-08-05T12:44:02.875Z,102039.25
2022-08-05T12:46:31.233Z,102043.97
2022-08-05T12:48:58.056Z,102045.53
2022-08-05T12:52:12.755Z,102043.53
2022-08-05T12:54:23.568Z,102057.47
2022-08-05T12:56:55.982Z,102051.19
2022-08-05T12:59:27.598Z,102051.22
2022-08-05T13:02:12.739Z,102061.59
2022-08-05T13:04:52.459Z,102056.34
2022-08-05T13:07:54.772Z,102056.34
2022-08-05T13:10:14.593Z,102061.75
2022-08-05T13:12:57.749Z,102060.94
2022-08-05T13:15:41.709Z,102064.88
2022-08-05T13:18:19.460Z,102061.06
2022-08-05T13:20:49.145Z,102071.44
2022-08-05T13:23:18.062Z,102074.16
2022-08-05T13:25:58.599Z,102076.09
2022-08-05T13:28:26.756Z,102072.09
2022-08-05T13:30:53.609Z,102084.25
2022-08-05T13:34:24.676Z,102083.09
2022-08-05T13:36:09.142Z,102092.31
2022-08-05T13:38:42.080Z,102095.88
2022-08-05T13:41:09.440Z,102091.06
2022-08-05T13:43:44.989Z,102091.50
2022-08-05T13:49:12.587Z,102099.13
2022-08-05T13:51:41.813Z,102099.97
2022-08-05T13:54:15.436Z,102113.44
2022-08-05T13:56:45.536Z,102110.28
2022-08-05T13:59:24.235Z,102111.84
2022-08-05T14:01:58.016Z,102111.81
2022-08-05T14:04:50.154Z,102113.41
2022-08-05T14:07:59.705Z,102114.22
2022-08-05T14:10:28.012Z,102122.53
2022-08-05T14:12:55.920Z,102124.13
2022-08-05T14:16:05.605Z,102121.78
2022-08-05T14:18:14.621Z,102124.13
2022-08-05T14:20:47.306Z,102129.66
2022-08-05T14:23:15.336Z,102131.22
2022-08-05T14:25:53.806Z,102129.63
2022-08-05T14:28:26.292Z,102133.94
2022-08-05T14:30:54.202Z,102130.72
2022-08-05T14:33:22.619Z,102127.56
2022-08-05T14:35:51.510Z,102134.59
2022-08-05T14:38:32.760Z,102141.00
2022-08-05T14:41:06.931Z,102144.25
2022-08-05T14:44:02.712Z,102150.19
2022-08-05T14:46:28.031Z,102144.25
2022-08-05T14:48:56.666Z,102142.28
2022-08-05T14:51:23.930Z,102144.25
2022-08-05T14:54:25.860Z,102152.16
2022-08-05T14:56:44.064Z,102150.97
2022-08-05T14:59:13.122Z,102148.63
2022-08-05T15:01:48.573Z,102156.91
2022-08-05T15:04:17.128Z,102157.28
2022-08-05T15:06:49.031Z,102158.09
2022-08-05T15:09:16.558Z,102151.00
2022-08-05T15:12:04.046Z,102152.97
2022-08-05T15:14:34.546Z,102148.22
2022-08-05T15:17:09.919Z,102156.13
2022-08-05T15:19:55.965Z,102164.44
2022-08-05T15:22:26.648Z,102158.91
2022-08-05T15:24:54.895Z,102162.84
2022-08-05T15:27:21.345Z,102159.25
2022-08-05T15:29:47.817Z,102169.94
2022-08-05T15:32:16.449Z,102169.53
2022-08-05T15:34:43.172Z,102173.91
2022-08-05T15:38:08.722Z,102167.97
2022-08-05T15:41:02.442Z,102165.22
2022-08-05T15:42:55.072Z,102168.75
2022-08-05T15:45:37.871Z,102173.13
2022-08-05T15:48:05.508Z,102177.06
2022-08-05T15:50:33.418Z,102175.03
2022-08-05T15:53:04.089Z,102170.22
2022-08-05T15:56:02.397Z,102182.44
2022-08-05T15:58:19.200Z,102177.31
2022-08-05T16:00:57.156Z,102188.00
2022-08-05T16:03:36.250Z,102183.22
2022-08-05T16:06:08.612Z,102189.88
2022-08-05T16:08:38.604Z,102191.81
2022-08-05T16:11:05.340Z,102198.91
2022-08-05T16:13:34.671Z,102200.44
2022-08-05T16:16:03.410Z,102204.00
2022-08-05T16:18:30.625Z,102210.91
2022-08-05T16:20:57.370Z,102206.53
2022-08-05T16:23:24.213Z,102215.94
2022-08-05T16:25:55.816Z,102208.44
2022-08-05T16:28:22.461Z,102204.91
2022-08-05T16:30:52.074Z,102212.84
2022-08-05T16:33:19.414Z,102221.91
2022-08-05T16:35:49.872Z,102226.97
2022-08-05T16:38:25.709Z,102219.78
2022-08-05T16:41:00.194Z,102225.25
2022-08-05T16:43:32.524Z,102232.47
2022-08-05T16:46:07.795Z,102227.84
2022-08-05T16:48:39.536Z,102236.50
2022-08-05T16:51:09.186Z,102234.25
2022-08-05T16:54:05.178Z,102241.56
2022-08-05T16:56:26.586Z,102240.41
2022-08-05T16:58:54.002Z,102234.94
2022-08-05T17:01:20.619Z,102248.25
2022-08-05T17:03:47.418Z,102237.47
2022-08-05T17:06:16.605Z,102251.22
2022-08-05T17:08:52.942Z,102244.41
2022-08-05T17:11:23.833Z,102255.28
2022-08-05T17:14:05.199Z,102252.56
2022-08-05T17:16:37.674Z,102256.16
2022-08-05T17:19:07.083Z,102253.47
2022-08-05T17:21:35.976Z,102266.78
2022-08-05T17:24:19.458Z,102264.47
2022-08-05T17:26:55.768Z,102265.28
2022-08-05T17:29:33.647Z,102257.41
2022-08-05T17:32:11.892Z,102265.00
2022-08-05T17:34:43.475Z,102263.25
2022-08-05T17:37:40.574Z,102270.34
2022-08-05T17:39:59.753Z,102284.47
2022-08-05T17:42:30.107Z,102283.25
2022-08-05T17:44:59.478Z,102296.06
2022-08-05T17:47:26.984Z,102292.88
2022-08-05T17:50:03.826Z,102292.88
2022-08-05T17:52:52.592Z,102301.41
2022-08-05T17:55:22.262Z,102298.53
2022-08-05T17:57:50.109Z,102302.16
2022-08-05T18:00:17.451Z,102310.69
2022-08-05T18:02:46.951Z,102312.91
2022-08-05T18:05:17.042Z,102306.97
2022-08-05T18:07:44.664Z,102310.13
2022-08-05T18:10:14.030Z,102316.44
2022-08-05T18:12:47.574Z,102321.78
2022-08-05T18:15:14.121Z,102322.06
2022-08-05T18:18:00.559Z,102321.66
2022-08-05T18:20:29.238Z,102330.66
2022-08-05T18:22:58.653Z,102331.25
2022-08-05T18:25:33.039Z,102331.84
2022-08-05T18:28:04.754Z,102334.13
2022-08-05T18:30:33.099Z,102340.78
2022-08-05T18:33:01.241Z,102343.97
2022-08-05T18:36:01.126Z,102344.41
2022-08-05T18:38:16.505Z,102349.09
2022-08-05T18:41:53.796Z,102348.31
2022-08-05T18:43:38.282Z,102351.25
2022-08-05T18:46:10.041Z,102361.00
2022-08-05T18:48:41.632Z,102359.72
2022-08-05T18:52:04.745Z,102356.50
2022-08-05T18:54:14.426Z,102357.31
2022-08-05T18:56:41.830Z,102365.88
2022-08-05T18:59:42.694Z,102360.97
2022-08-05T19:02:04.894Z,102365.88
2022-08-05T19:05:03.235Z,102379.16
2022-08-05T19:07:46.402Z,102377.88
2022-08-05T19:10:14.703Z,102382.47
2022-08-05T19:12:41.416Z,102388.28
2022-08-05T19:15:10.659Z,102380.50
2022-08-05T19:17:59.371Z,102392.94
2022-08-05T19:20:35.641Z,102392.13
2022-08-05T19:23:03.209Z,102396.19
2022-08-05T19:25:42.032Z,102399.94
2022-08-05T19:28:10.266Z,102406.66
2022-08-05T19:30:36.835Z,102408.13
2022-08-05T19:33:04.705Z,102412.03
2022-08-05T19:35:56.094Z,102416.78
2022-08-05T19:38:24.082Z,102420.16
2022-08-05T19:40:53.447Z,102418.56
2022-08-05T19:44:04.111Z,102424.84
2022-08-05T19:46:06.536Z,102424.50
2022-08-05T19:48:43.983Z,102429.75
2022-08-05T19:52:04.588Z,102430.47
2022-08-05T19:54:15.508Z,102433.84
2022-08-05T19:56:54.327Z,102433.84
2022-08-05T19:59:51.649Z,102438.47
2022-08-05T20:02:07.367Z,102439.06
2022-08-05T20:04:33.870Z,102447.56
2022-08-05T20:07:00.445Z,102445.75
2022-08-05T20:09:28.532Z,102452.41
2022-08-05T20:12:15.160Z,102454.53
2022-08-05T20:14:41.862Z,102459.72
2022-08-05T20:17:09.921Z,102459.97
2022-08-05T20:19:41.357Z,102469.44
2022-08-05T20:22:09.693Z,102470.59
2022-08-05T20:24:36.451Z,102467.88
2022-08-05T20:27:04.734Z,102472.19
2022-08-05T20:29:37.998Z,102475.53
2022-08-05T20:32:06.545Z,102483.97
2022-08-05T20:34:33.107Z,102485.19
2022-08-05T20:37:00.802Z,102490.06
2022-08-05T20:39:35.777Z,102494.66
2022-08-05T20:42:04.771Z,102498.00
2022-08-05T20:44:33.071Z,102502.31
2022-08-05T20:47:07.642Z,102507.34
2022-08-05T20:49:39.554Z,102504.84
2022-08-05T20:52:07.390Z,102507.00
2022-08-05T20:54:59.866Z,102505.53
2022-08-05T20:57:42.610Z,102506.53
2022-08-05T21:00:40.310Z,102506.44
2022-08-05T21:03:01.199Z,102501.84
2022-08-05T21:05:37.969Z,102504.34
2022-08-05T21:08:14.943Z,102507.78
2022-08-05T21:10:48.731Z,102513.59
2022-08-05T21:13:20.263Z,102516.19
2022-08-05T21:15:54.735Z,102514.94
2022-08-05T21:18:23.365Z,102514.78
2022-08-05T21:20:50.142Z,102513.16
2022-08-05T21:23:16.619Z,102517.22
2022-08-05T21:25:44.575Z,102519.22
2022-08-05T21:28:12.080Z,102524.59
2022-08-05T21:30:40.121Z,102521.84
2022-08-05T21:33:22.100Z,102522.75
2022-08-05T21:35:55.984Z,102534.25
2022-08-05T21:38:27.697Z,102525.47
2022-08-05T21:40:54.366Z,102533.50
2022-08-05T21:43:24.059Z,102534.38
2022-08-05T21:45:57.952Z,102528.00
2022-08-05T21:48:27.886Z,102534.13
2022-08-05T21:50:54.994Z,102533.00
2022-08-05T21:53:23.251Z,102531.06
2022-08-05T21:56:06.069Z,102534.66
2022-08-05T21:58:42.473Z,102537.00
2022-08-05T22:01:25.010Z,102534.97
2022-08-05T22:03:53.624Z,102537.91
2022-08-05T22:06:35.263Z,102543.13
2022-08-05T22:09:13.847Z,102545.59
2022-08-05T22:11:42.169Z,102540.91
2022-08-05T22:14:33.461Z,102545.41
2022-08-05T22:17:00.212Z,102550.66
2022-08-05T22:20:01.963Z,102562.72
2022-08-05T22:22:16.547Z,102563.91
2022-08-05T22:25:18.034Z,102556.28
2022-08-05T22:28:09.658Z,102566.28
2022-08-05T22:30:44.114Z,102567.56
2022-08-05T22:33:56.996Z,102572.09
2022-08-05T22:36:10.084Z,102562.97
2022-08-05T22:38:36.630Z,102563.16
2022-08-05T22:41:09.554Z,102566.22
2022-08-05T22:43:37.995Z,102564.44
2022-08-05T22:46:12.201Z,102572.44
2022-08-05T22:48:40.736Z,102582.69
2022-08-05T22:51:07.939Z,102573.38
2022-08-05T22:53:42.308Z,102576.91
2022-08-05T22:56:09.885Z,102578.84
2022-08-05T22:58:36.619Z,102587.19
2022-08-05T23:01:03.143Z,102582.25
2022-08-05T23:03:57.809Z,102582.59
2022-08-05T23:06:18.890Z,102592.38
2022-08-05T23:08:45.610Z,102589.16
2022-08-05T23:11:18.618Z,102588.19
2022-08-05T23:13:45.337Z,102591.56
2022-08-05T23:16:33.226Z,102600.38
2022-08-05T23:19:01.022Z,102595.56
2022-08-05T23:21:42.528Z,102599.25
2022-08-05T23:24:14.394Z,102602.31
2022-08-05T23:26:41.766Z,102599.72
2022-08-05T23:29:10.741Z,102606.75
2022-08-05T23:31:42.413Z,102605.13
2022-08-05T23:34:08.989Z,102611.19
2022-08-05T23:36:39.826Z,102611.03
2022-08-05T23:39:17.461Z,102612.34
2022-08-05T23:41:50.674Z,102619.72
2022-08-05T23:44:17.329Z,102612.81
2022-08-05T23:46:46.447Z,102617.31
2022-08-05T23:49:16.036Z,102618.78
2022-08-05T23:52:02.702Z,102618.59
2022-08-05T23:54:36.425Z,102626.09
2022-08-05T23:57:06.605Z,102623.13
